Time;durP1;ratioP1;P1;durP2;ratioP2;P2;SDS_P1;SDS_P2;PMS_P1;PMS_P2;Temp;Humidity;BMP_temperature;BMP_pressure;BME280_temperature;BME280_humidity;BME280_pressure;Samples;Min_cycle;Max_cycle;Signal;HPM_P1;HPM_P2
2023/03/19 00:00:12;;;;;;;;;;;;;;;11.12;66.19;97788.69;6152429;23;19912;-65
2023/03/19 00:02:38;;;;;;;;;;;;;;;11.11;65.75;97783.56;6152933;23;19913;-66
2023/03/19 00:05:03;;;;;;;;;;;;;;;11.10;66.22;97782.72;6126654;23;19913;-65
2023/03/19 00:07:28;;;;;;;;;;;;;;;11.10;66.56;97776.63;6127955;23;20165;-66
2023/03/19 00:09:53;;;;;;;;;;;;;;;11.15;66.63;97787.63;6153781;23;19927;-65
2023/03/19 00:12:19;;;;;;;;;;;;;;;11.11;66.40;97783.56;6153723;23;19909;-65
2023/03/19 00:14:44;;;;;;;;;;;;;;;11.07;65.55;97782.94;6153464;23;19912;-66
2023/03/19 00:17:10;;;;;;;;;;;;;;;11.09;66.94;97786.31;6154230;23;20249;-66
2023/03/19 00:19:35;;;;;;;;;;;;;;;11.06;67.43;97786.53;6153468;23;19967;-65
2023/03/19 00:22:00;;;;;;;;;;;;;;;11.05;65.37;97787.50;6154032;23;19959;-65
2023/03/19 00:24:25;;;;;;;;;;;;;;;10.99;66.38;97790.59;6126799;23;20233;-66
2023/03/19 00:26:51;;;;;;;;;;;;;;;11.01;67.32;97783.44;6128069;23;20347;-66
2023/03/19 00:29:16;;;;;;;;;;;;;;;10.86;64.84;97787.22;6128320;23;19975;-66
2023/03/19 00:31:41;;;;;;;;;;;;;;;10.95;67.28;97789.16;6153651;23;20332;-65
2023/03/19 00:34:07;;;;;;;;;;;;;;;10.95;66.19;97789.16;6129609;23;19909;-66
2023/03/19 00:36:32;;;;;;;;;;;;;;;10.88;66.09;97790.59;6128905;23;19938;-65
2023/03/19 00:38:57;;;;;;;;;;;;;;;10.94;66.76;97797.97;6155563;23;19916;-65
2023/03/19 00:41:22;;;;;;;;;;;;;;;10.97;67.29;97789.88;6155302;23;19913;-66
2023/03/19 00:43:51;;;;;;;;;;;;;;;10.98;66.57;97788.06;6155865;23;20333;-66
2023/03/19 00:46:16;;;;;;;;;;;;;;;10.93;66.48;97793.69;6155201;23;19966;-66
2023/03/19 00:48:42;;;;;;;;;;;;;;;10.95;66.95;97796.19;6154794;23;19979;-65
2023/03/19 00:51:08;;;;;;;;;;;;;;;10.90;67.10;97796.53;6155247;23;19934;-65
2023/03/19 00:53:37;;;;;;;;;;;;;;;10.85;68.32;97799.53;6129218;23;19908;-66
2023/03/19 00:56:03;;;;;;;;;;;;;;;10.80;66.62;97800.81;6155298;23;20252;-65
2023/03/19 00:58:28;;;;;;;;;;;;;;;10.83;67.61;97795.34;6155815;23;19915;-65
2023/03/19 01:00:53;;;;;;;;;;;;;;;10.79;68.65;97793.91;6129118;23;19923;-66
2023/03/19 01:03:19;;;;;;;;;;;;;;;10.82;67.93;97796.28;6129240;23;19908;-65
2023/03/19 01:05:46;;;;;;;;;;;;;;;10.78;68.21;97785.19;6129430;23;19917;-65
2023/03/19 01:08:11;;;;;;;;;;;;;;;10.82;67.63;97789.25;6129152;23;19909;-65
2023/03/19 01:10:36;;;;;;;;;;;;;;;10.85;68.36;97788.19;6154581;23;19996;-65
2023/03/19 01:13:01;;;;;;;;;;;;;;;10.84;68.34;97789.13;6127705;23;19944;-65
2023/03/19 01:15:27;;;;;;;;;;;;;;;10.82;68.60;97791.03;6104634;23;19909;-65
2023/03/19 01:17:52;;;;;;;;;;;;;;;10.81;67.75;97792.00;6128206;23;19980;-66
2023/03/19 01:20:17;;;;;;;;;;;;;;;10.83;68.92;97800.56;6129003;23;19944;-66
2023/03/19 01:22:43;;;;;;;;;;;;;;;10.81;67.52;97792.00;6129038;23;20352;-65
2023/03/19 01:25:08;;;;;;;;;;;;;;;10.80;68.25;97803.44;6129589;23;19986;-66
2023/03/19 01:27:34;;;;;;;;;;;;;;;10.81;67.93;97794.63;6153970;23;19913;-66
2023/03/19 01:30:00;;;;;;;;;;;;;;;10.75;68.09;97797.72;6129274;23;20332;-66
2023/03/19 01:32:25;;;;;;;;;;;;;;;10.75;68.26;97797.72;6129249;23;19915;-65
2023/03/19 01:34:50;;;;;;;;;;;;;;;10.74;68.70;97801.28;6128062;23;20008;-66
2023/03/19 01:37:15;;;;;;;;;;;;;;;10.74;69.19;97801.28;6128851;23;20325;-65
2023/03/19 01:39:41;;;;;;;;;;;;;;;10.70;69.35;97805.91;6154062;23;19971;-66
2023/03/19 01:42:06;;;;;;;;;;;;;;;10.72;68.74;97795.31;6155228;23;19916;-65
2023/03/19 01:44:32;;;;;;;;;;;;;;;10.75;68.70;97793.28;6127092;23;19983;-66
2023/03/19 01:46:57;;;;;;;;;;;;;;;10.80;69.51;97790.31;6129353;23;19970;-66
2023/03/19 01:49:23;;;;;;;;;;;;;;;10.79;68.80;97791.28;6128223;23;20360;-66
2023/03/19 01:51:48;;;;;;;;;;;;;;;10.81;69.14;97784.97;6129287;23;19913;-65
2023/03/19 01:54:14;;;;;;;;;;;;;;;10.80;68.78;97779.81;6128856;23;19912;-66
2023/03/19 01:56:39;;;;;;;;;;;;;;;10.76;68.69;97773.16;6155594;23;19908;-66
2023/03/19 01:59:10;;;;;;;;;;;;;;;10.72;68.70;97769.09;6129452;23;20301;-66
2023/03/19 02:01:37;;;;;;;;;;;;;;;10.73;68.56;97778.63;6104088;23;19917;-66
2023/03/19 02:04:02;;;;;;;;;;;;;;;10.60;68.52;97779.56;6128613;23;19909;-66
2023/03/19 02:06:29;;;;;;;;;;;;;;;10.57;68.37;97782.41;6128853;23;19915;-65
2023/03/19 02:08:54;;;;;;;;;;;;;;;10.57;66.63;97792.06;6104220;23;19916;-66
2023/03/19 02:11:19;;;;;;;;;;;;;;;10.45;68.42;97805.13;6128578;23;19913;-66
2023/03/19 02:13:45;;;;;;;;;;;;;;;10.31;67.42;97801.88;6103900;23;19908;-65
2023/03/19 02:16:11;;;;;;;;;;;;;;;10.21;65.95;97797.25;6108529;23;20009;-66
2023/03/19 02:18:36;;;;;;;;;;;;;;;10.22;69.48;97796.34;6154677;23;19908;-65
2023/03/19 02:21:04;;;;;;;;;;;;;;;10.27;70.19;97798.63;6154307;23;19913;-65
2023/03/19 02:23:36;;;;;;;;;;;;;;;10.28;67.45;97799.47;6154526;23;19936;-66
2023/03/19 02:26:02;;;;;;;;;;;;;;;10.22;67.61;97803.38;6154231;23;19968;-65
2023/03/19 02:28:27;;;;;;;;;;;;;;;10.15;69.03;97799.50;6152998;23;19908;-66
2023/03/19 02:30:52;;;;;;;;;;;;;;;10.13;69.25;97804.03;6152614;23;19991;-66
2023/03/19 02:33:18;;;;;;;;;;;;;;;10.08;69.32;97804.38;6152530;23;19909;-65
2023/03/19 02:35:44;;;;;;;;;;;;;;;10.24;70.67;97804.06;6152974;23;19920;-66
2023/03/19 02:38:09;;;;;;;;;;;;;;;10.16;66.73;97802.00;6128642;23;19927;-66
2023/03/19 02:40:35;;;;;;;;;;;;;;;10.08;69.37;97799.13;6127251;23;19917;-66
2023/03/19 02:43:01;;;;;;;;;;;;;;;10.09;68.85;97800.78;6153518;23;20404;-66
2023/03/19 02:45:30;;;;;;;;;;;;;;;10.15;70.07;97802.97;6127318;23;19912;-65
2023/03/19 02:47:55;;;;;;;;;;;;;;;10.22;70.53;97796.34;6153002;23;19931;-65
2023/03/19 02:50:20;;;;;;;;;;;;;;;10.20;69.49;97798.22;6152476;23;19908;-66
2023/03/19 02:52:46;;;;;;;;;;;;;;;10.13;69.07;97796.16;6152558;23;19915;-66
2023/03/19 02:55:11;;;;;;;;;;;;;;;10.10;69.08;97797.22;6152771;23;19909;-65
2023/03/19 02:57:36;;;;;;;;;;;;;;;10.15;68.68;97800.34;6152858;23;19909;-65
2023/03/19 03:00:03;;;;;;;;;;;;;;;10.03;68.13;97803.84;6152577;23;19909;-66
2023/03/19 03:02:28;;;;;;;;;;;;;;;10.04;70.41;97805.50;6154916;23;19909;-65
2023/03/19 03:04:53;;;;;;;;;;;;;;;10.11;70.13;97808.53;6152407;23;20337;-65
2023/03/19 03:07:18;;;;;;;;;;;;;;;10.16;69.82;97809.88;6153112;23;19908;-65
2023/03/19 03:09:44;;;;;;;;;;;;;;;10.23;69.82;97805.84;6153605;23;19919;-66
2023/03/19 03:12:09;;;;;;;;;;;;;;;10.25;69.70;97812.75;6153661;23;19908;-65
2023/03/19 03:14:34;;;;;;;;;;;;;;;10.23;69.72;97807.66;6152746;23;19913;-65
2023/03/19 03:17:00;;;;;;;;;;;;;;;10.13;68.47;97815.34;6151902;23;20348;-66
2023/03/19 03:19:25;;;;;;;;;;;;;;;10.08;68.70;97814.84;6153051;23;19909;-65
2023/03/19 03:21:50;;;;;;;;;;;;;;;10.08;69.73;97819.22;6127469;23;19995;-66
2023/03/19 03:24:16;;;;;;;;;;;;;;;10.11;68.98;97816.38;6152566;23;19917;-66
2023/03/19 03:26:41;;;;;;;;;;;;;;;10.09;69.37;97816.50;6152277;23;19908;-66
2023/03/19 03:29:06;;;;;;;;;;;;;;;10.09;69.97;97827.00;6153965;23;19908;-65
2023/03/19 03:31:32;;;;;;;;;;;;;;;10.14;69.66;97822.25;6152389;23;19908;-65
2023/03/19 03:33:57;;;;;;;;;;;;;;;10.11;69.42;97824.25;6151871;23;19932;-65
2023/03/19 03:36:22;;;;;;;;;;;;;;;10.11;67.87;97832.13;6152869;23;19923;-65
2023/03/19 03:38:47;;;;;;;;;;;;;;;10.15;69.53;97830.94;6152676;23;19909;-65
2023/03/19 03:41:13;;;;;;;;;;;;;;;10.14;69.69;97830.09;6154236;23;19962;-66
2023/03/19 03:43:38;;;;;;;;;;;;;;;10.19;69.53;97835.03;6126369;23;19988;-65
2023/03/19 03:46:03;;;;;;;;;;;;;;;10.27;70.01;97831.88;6152974;23;19908;-66
2023/03/19 03:48:29;;;;;;;;;;;;;;;10.18;67.58;97831.56;6153003;23;19991;-65
2023/03/19 03:50:54;;;;;;;;;;;;;;;10.15;69.00;97838.78;6152842;23;19920;-66
2023/03/19 03:53:19;;;;;;;;;;;;;;;10.07;69.41;97836.75;6153843;23;19992;-65
2023/03/19 03:55:44;;;;;;;;;;;;;;;10.08;69.21;97834.94;6153997;23;19936;-65
2023/03/19 03:58:11;;;;;;;;;;;;;;;10.06;69.09;97842.94;6152867;23;19909;-66
2023/03/19 04:00:37;;;;;;;;;;;;;;;10.02;69.49;97838.03;6151910;23;19923;-65
2023/03/19 04:03:02;;;;;;;;;;;;;;;9.96;70.17;97841.94;6153750;23;19908;-65
2023/03/19 04:05:27;;;;;;;;;;;;;;;10.02;70.44;97833.63;6127717;23;19963;-66
2023/03/19 04:07:52;;;;;;;;;;;;;;;10.02;69.76;97835.41;6152718;23;20257;-66
2023/03/19 04:10:18;;;;;;;;;;;;;;;10.06;69.18;97842.09;6152360;23;20280;-66
2023/03/19 04:12:44;;;;;;;;;;;;;;;10.05;69.90;97849.13;6153766;23;19909;-66
2023/03/19 04:15:10;;;;;;;;;;;;;;;9.96;69.62;97848.00;6152253;23;19931;-66
2023/03/19 04:17:35;;;;;;;;;;;;;;;9.99;69.74;97853.03;6153912;23;20249;-66
2023/03/19 04:20:01;;;;;;;;;;;;;;;9.94;70.19;97860.38;6127672;23;19908;-66
2023/03/19 04:22:26;;;;;;;;;;;;;;;9.97;71.11;97856.69;6154017;23;19912;-66
2023/03/19 04:24:52;;;;;;;;;;;;;;;10.06;70.99;97853.41;6153710;23;19963;-66
2023/03/19 04:27:17;;;;;;;;;;;;;;;10.13;70.88;97851.19;6153194;23;19908;-66
2023/03/19 04:29:42;;;;;;;;;;;;;;;10.17;70.55;97850.03;6127666;23;19975;-66
2023/03/19 04:32:07;;;;;;;;;;;;;;;10.14;69.43;97858.94;6127186;23;19913;-65
2023/03/19 04:34:33;;;;;;;;;;;;;;;10.09;70.39;97858.44;6153714;23;19909;-66
2023/03/19 04:36:58;;;;;;;;;;;;;;;10.07;70.02;97869.97;6153767;23;19943;-65
2023/03/19 04:39:24;;;;;;;;;;;;;;;9.99;67.50;97867.91;6127945;23;19963;-65
2023/03/19 04:41:49;;;;;;;;;;;;;;;10.09;70.97;97863.69;6126778;23;19924;-66
2023/03/19 04:44:15;;;;;;;;;;;;;;;10.13;69.61;97864.28;6153879;23;19919;-66
2023/03/19 04:46:40;;;;;;;;;;;;;;;10.18;70.52;97868.25;6126728;23;19908;-65
2023/03/19 04:49:05;;;;;;;;;;;;;;;10.12;69.79;97863.47;6154286;23;19928;-66
2023/03/19 04:51:31;;;;;;;;;;;;;;;10.07;70.06;97865.56;6153756;23;19940;-66
2023/03/19 04:53:56;;;;;;;;;;;;;;;10.14;70.54;97865.97;6153051;23;19915;-65
2023/03/19 04:56:22;;;;;;;;;;;;;;;10.23;70.58;97866.13;6153702;23;19919;-65
2023/03/19 04:58:47;;;;;;;;;;;;;;;10.30;71.07;97871.81;6153998;23;19909;-66
2023/03/19 05:01:12;;;;;;;;;;;;;;;10.33;70.91;97876.00;6153573;23;19913;-66
2023/03/19 05:03:37;;;;;;;;;;;;;;;10.28;70.27;97878.09;6153242;23;19909;-66
2023/03/19 05:06:02;;;;;;;;;;;;;;;10.30;70.08;97873.59;6127804;23;19916;-66
2023/03/19 05:08:28;;;;;;;;;;;;;;;10.19;68.11;97869.94;6128023;23;19909;-66
2023/03/19 05:10:53;;;;;;;;;;;;;;;10.21;69.93;97878.50;6127224;23;19932;-65
2023/03/19 05:13:18;;;;;;;;;;;;;;;10.13;69.57;97861.69;6126862;23;19913;-66
2023/03/19 05:15:44;;;;;;;;;;;;;;;10.16;70.16;97867.53;6127416;23;20407;-66
2023/03/19 05:18:09;;;;;;;;;;;;;;;10.22;70.41;97876.75;6128508;23;19988;-66
2023/03/19 05:20:34;;;;;;;;;;;;;;;10.21;69.69;97873.25;6155480;23;19916;-66
2023/03/19 05:23:00;;;;;;;;;;;;;;;10.12;69.09;97881.81;6129179;23;20328;-66
2023/03/19 05:25:25;;;;;;;;;;;;;;;10.09;69.71;97874.16;6128787;23;19913;-66
2023/03/19 05:27:51;;;;;;;;;;;;;;;10.10;70.55;97883.69;6129468;23;19935;-65
2023/03/19 05:30:17;;;;;;;;;;;;;;;10.16;70.78;97885.88;6154165;23;19908;-66
2023/03/19 05:32:43;;;;;;;;;;;;;;;10.23;70.39;97888.91;6128424;23;19909;-65
2023/03/19 05:35:08;;;;;;;;;;;;;;;10.29;70.20;97887.63;6129087;23;19909;-66
2023/03/19 05:37:33;;;;;;;;;;;;;;;10.22;69.22;97906.41;6128949;23;19912;-66
2023/03/19 05:39:58;;;;;;;;;;;;;;;10.26;69.92;97911.47;6155046;23;19964;-66
2023/03/19 05:42:24;;;;;;;;;;;;;;;10.27;69.94;97913.13;6154476;23;20323;-65
2023/03/19 05:44:49;;;;;;;;;;;;;;;10.27;69.05;97913.13;6128658;23;19920;-66
2023/03/19 05:47:15;;;;;;;;;;;;;;;10.27;70.05;97915.75;6154956;23;19959;-65
2023/03/19 05:49:40;;;;;;;;;;;;;;;10.32;70.08;97921.50;6155116;23;19908;-66
2023/03/19 05:52:05;;;;;;;;;;;;;;;10.37;69.85;97929.88;6154511;23;19908;-65
2023/03/19 05:54:30;;;;;;;;;;;;;;;10.41;70.59;97932.16;6129268;23;19913;-65
2023/03/19 05:56:55;;;;;;;;;;;;;;;10.45;70.16;97927.53;6128683;23;19909;-66
2023/03/19 05:59:21;;;;;;;;;;;;;;;10.52;69.96;97923.50;6154907;23;19991;-66
2023/03/19 06:01:46;;;;;;;;;;;;;;;10.59;70.04;97927.34;6127932;23;19955;-66
2023/03/19 06:04:11;;;;;;;;;;;;;;;10.65;70.16;97932.16;6128105;23;19995;-65
2023/03/19 06:06:36;;;;;;;;;;;;;;;10.67;69.60;97934.69;6154443;23;19951;-66
2023/03/19 06:09:02;;;;;;;;;;;;;;;10.75;70.02;97939.38;6154550;23;19909;-66
2023/03/19 06:11:27;;;;;;;;;;;;;;;11.03;70.51;97948.66;6128864;23;19920;-66
2023/03/19 06:13:52;;;;;;;;;;;;;;;11.33;69.69;97942.91;6127983;23;19908;-66
2023/03/19 06:16:17;;;;;;;;;;;;;;;11.57;67.81;97946.28;6153836;23;19940;-65
2023/03/19 06:18:44;;;;;;;;;;;;;;;11.78;67.01;97945.56;6155017;23;20483;-65
2023/03/19 06:21:09;;;;;;;;;;;;;;;11.95;66.72;97949.56;6153072;23;19995;-66
2023/03/19 06:23:34;;;;;;;;;;;;;;;12.08;65.02;97947.63;6102594;23;19943;-65
2023/03/19 06:26:00;;;;;;;;;;;;;;;12.19;65.05;97946.78;6128018;23;19983;-66
2023/03/19 06:28:25;;;;;;;;;;;;;;;12.26;64.15;97951.44;6103284;23;19948;-65
2023/03/19 06:30:52;;;;;;;;;;;;;;;12.36;63.58;97959.44;6153387;23;19931;-66
2023/03/19 06:33:17;;;;;;;;;;;;;;;12.43;63.83;97955.34;6101992;23;20343;-66
2023/03/19 06:35:43;;;;;;;;;;;;;;;12.51;62.92;97966.09;6127634;23;19909;-66
2023/03/19 06:38:08;;;;;;;;;;;;;;;12.58;63.25;97958.53;6153933;23;19909;-65
2023/03/19 06:40:33;;;;;;;;;;;;;;;12.64;62.87;97965.94;6153326;23;19920;-65
2023/03/19 06:42:59;;;;;;;;;;;;;;;12.70;62.31;97969.88;6126308;23;19908;-66
2023/03/19 06:45:24;;;;;;;;;;;;;;;12.74;62.07;97973.94;6153580;23;20356;-66
2023/03/19 06:47:50;;;;;;;;;;;;;;;12.78;61.87;97972.72;6127271;23;19928;-66
2023/03/19 06:50:15;;;;;;;;;;;;;;;12.83;61.16;97971.41;6153462;23;19912;-66
2023/03/19 06:52:41;;;;;;;;;;;;;;;12.88;61.11;97971.00;6126595;23;19999;-66
2023/03/19 06:55:07;;;;;;;;;;;;;;;12.91;60.99;97983.94;6128202;23;20248;-66
2023/03/19 06:57:32;;;;;;;;;;;;;;;12.95;60.97;97982.72;6127623;23;19920;-66
2023/03/19 06:59:57;;;;;;;;;;;;;;;12.96;61.18;97980.91;6102701;23;20325;-66
2023/03/19 07:02:23;;;;;;;;;;;;;;;13.00;61.70;97991.03;6153899;23;20358;-66
2023/03/19 07:04:48;;;;;;;;;;;;;;;13.06;61.79;97993.19;6126565;23;19979;-66
2023/03/19 07:07:13;;;;;;;;;;;;;;;13.12;61.65;97991.03;6127638;23;19909;-66
2023/03/19 07:09:38;;;;;;;;;;;;;;;13.22;61.03;97998.03;6153041;23;19913;-66
2023/03/19 07:12:04;;;;;;;;;;;;;;;13.30;61.16;98005.31;6153924;23;19908;-65
2023/03/19 07:14:29;;;;;;;;;;;;;;;13.36;60.70;98009.25;6152829;23;19912;-66
2023/03/19 07:16:54;;;;;;;;;;;;;;;13.42;60.56;98014.88;6140152;23;19943;-66
2023/03/19 07:19:20;;;;;;;;;;;;;;;13.46;60.51;98015.44;6152230;23;19933;-66
2023/03/19 07:21:45;;;;;;;;;;;;;;;13.48;60.30;98016.97;6154173;23;19916;-65
2023/03/19 07:24:10;;;;;;;;;;;;;;;13.52;60.00;98021.03;6150940;23;20007;-66
2023/03/19 07:26:36;;;;;;;;;;;;;;;13.56;59.82;98023.38;6153348;23;20257;-66
2023/03/19 07:29:01;;;;;;;;;;;;;;;13.59;59.75;98026.59;6151777;23;20257;-66
2023/03/19 07:31:26;;;;;;;;;;;;;;;13.60;60.09;98038.00;6153702;23;19932;-67
2023/03/19 07:33:51;;;;;;;;;;;;;;;13.63;60.00;98040.38;6150347;23;19909;-66
2023/03/19 07:36:16;;;;;;;;;;;;;;;13.65;59.93;98035.81;6151185;23;19908;-67
2023/03/19 07:38:42;;;;;;;;;;;;;;;13.69;60.11;98037.22;6153798;23;19932;-66
2023/03/19 07:41:07;;;;;;;;;;;;;;;13.71;59.75;98046.66;6152488;23;19912;-66
2023/03/19 07:43:32;;;;;;;;;;;;;;;13.62;58.53;98046.59;6149785;23;19924;-64
2023/03/19 07:45:57;;;;;;;;;;;;;;;13.19;59.12;98040.41;6123793;23;19908;-64
2023/03/19 07:48:23;;;;;;;;;;;;;;;12.84;60.92;98051.19;6151798;23;19913;-66
2023/03/19 07:50:51;;;;;;;;;;;;;;;12.68;62.01;98061.25;6150557;23;19984;-65
2023/03/19 07:53:16;;;;;;;;;;;;;;;12.46;62.92;98067.38;6148746;23;19979;-65
2023/03/19 07:55:41;;;;;;;;;;;;;;;12.32;64.34;98068.47;6151540;23;19913;-65
2023/03/19 07:58:06;;;;;;;;;;;;;;;12.14;65.05;98068.06;6150842;23;19908;-64
2023/03/19 08:00:32;;;;;;;;;;;;;;;11.84;67.20;98066.03;6150436;23;19913;-64
2023/03/19 08:02:57;;;;;;;;;;;;;;;11.70;68.30;98074.91;6151372;23;19951;-65
2023/03/19 08:05:22;;;;;;;;;;;;;;;11.66;69.13;98068.19;6152291;23;19991;-64
2023/03/19 08:07:49;;;;;;;;;;;;;;;11.61;68.79;98070.34;6150790;23;19978;-64
2023/03/19 08:10:14;;;;;;;;;;;;;;;11.50;69.80;98081.66;6152571;23;19958;-64
2023/03/19 08:12:40;;;;;;;;;;;;;;;11.45;70.35;98086.38;6152870;23;19944;-64
2023/03/19 08:15:05;;;;;;;;;;;;;;;11.39;71.05;98081.59;6150923;23;19936;-65
2023/03/19 08:17:36;;;;;;;;;;;;;;;11.33;71.99;98088.13;6152521;23;19940;-64
2023/03/19 08:20:03;;;;;;;;;;;;;;;11.26;71.26;98086.09;6126141;23;20276;-64
2023/03/19 08:22:28;;;;;;;;;;;;;;;11.25;72.16;98094.88;6153467;23;19912;-66
2023/03/19 08:24:53;;;;;;;;;;;;;;;11.23;72.63;98088.94;6126034;23;20482;-65
2023/03/19 08:27:18;;;;;;;;;;;;;;;11.19;73.09;98095.34;6124561;23;19959;-65
2023/03/19 08:29:43;;;;;;;;;;;;;;;11.19;73.40;98093.56;6152891;23;19908;-65
2023/03/19 08:32:09;;;;;;;;;;;;;;;11.16;73.37;98097.25;6127576;23;19912;-66
2023/03/19 08:34:34;;;;;;;;;;;;;;;11.16;73.47;98106.91;6125917;23;19909;-64
2023/03/19 08:36:59;;;;;;;;;;;;;;;11.14;74.22;98109.63;6151280;23;19947;-65
2023/03/19 08:39:24;;;;;;;;;;;;;;;11.15;74.23;98115.75;6152077;23;19913;-64
2023/03/19 08:41:50;;;;;;;;;;;;;;;11.13;74.70;98107.13;6151711;23;19917;-64
2023/03/19 08:44:15;;;;;;;;;;;;;;;11.15;74.94;98110.50;6126057;23;19947;-63
2023/03/19 08:46:41;;;;;;;;;;;;;;;11.14;75.84;98112.25;6151795;23;19915;-64
2023/03/19 08:49:06;;;;;;;;;;;;;;;11.12;75.67;98124.66;6150570;23;19912;-65
2023/03/19 08:51:31;;;;;;;;;;;;;;;11.12;76.09;98119.41;6150505;23;19932;-64
2023/03/19 08:53:57;;;;;;;;;;;;;;;11.10;75.86;98121.31;6128446;23;19940;-64
2023/03/19 08:56:22;;;;;;;;;;;;;;;11.12;76.31;98116.78;6128634;23;19960;-63
2023/03/19 08:58:47;;;;;;;;;;;;;;;11.20;75.77;98118.88;6154588;23;19931;-63
2023/03/19 09:01:13;;;;;;;;;;;;;;;11.29;76.27;98117.38;6153572;23;20016;-62
2023/03/19 09:03:39;;;;;;;;;;;;;;;11.39;76.32;98123.63;6126761;23;19912;-62
2023/03/19 09:06:05;;;;;;;;;;;;;;;11.50;76.75;98128.91;6128903;23;19916;-62
2023/03/19 09:08:30;;;;;;;;;;;;;;;11.59;76.69;98128.22;6154036;23;19958;-62
2023/03/19 09:10:55;;;;;;;;;;;;;;;11.67;76.77;98137.34;6127528;23;19920;-65
2023/03/19 09:13:20;;;;;;;;;;;;;;;11.76;75.90;98131.41;6127659;23;19915;-63
2023/03/19 09:15:46;;;;;;;;;;;;;;;11.86;75.50;98137.69;6154940;23;19912;-65
2023/03/19 09:18:11;;;;;;;;;;;;;;;11.95;76.41;98131.75;6128462;23;19963;-64
2023/03/19 09:20:36;;;;;;;;;;;;;;;12.07;75.94;98136.06;6154752;23;19912;-63
2023/03/19 09:23:01;;;;;;;;;;;;;;;12.20;75.16;98137.75;6153589;23;19959;-63
2023/03/19 09:25:27;;;;;;;;;;;;;;;12.33;75.32;98141.13;6154628;23;19954;-64
2023/03/19 09:27:52;;;;;;;;;;;;;;;12.41;74.43;98144.00;6154492;23;19909;-64
2023/03/19 09:30:17;;;;;;;;;;;;;;;12.48;74.19;98139.94;6154006;23;20356;-64
2023/03/19 09:32:42;;;;;;;;;;;;;;;12.58;74.36;98140.06;6153795;23;20225;-64
2023/03/19 09:35:08;;;;;;;;;;;;;;;12.67;73.83;98143.78;6129184;23;19916;-64
2023/03/19 09:37:33;;;;;;;;;;;;;;;12.77;73.30;98142.94;6153855;23;19912;-64
2023/03/19 09:39:58;;;;;;;;;;;;;;;12.87;72.49;98135.16;6154533;23;19908;-63
2023/03/19 09:42:30;;;;;;;;;;;;;;;12.89;70.64;98149.03;6153071;23;19913;-65
2023/03/19 09:44:55;;;;;;;;;;;;;;;12.91;70.75;98141.88;6128189;23;19912;-64
2023/03/19 09:47:31;;;;;;;;;;;;;;;12.94;70.72;98149.53;6127439;23;19913;-63
2023/03/19 09:49:57;;;;;;;;;;;;;;;12.90;70.62;98140.16;6126313;23;19913;-63
2023/03/19 09:52:41;;;;;;;;;;;;;;;12.85;70.83;98147.59;6126635;23;19916;-64
2023/03/19 09:55:09;;;;;;;;;;;;;;;12.85;71.55;98146.78;6153301;23;20221;-63
2023/03/19 09:57:35;;;;;;;;;;;;;;;12.79;71.93;98154.19;6154415;23;20256;-63
2023/03/19 10:00:01;;;;;;;;;;;;;;;12.78;71.82;98149.03;6127218;23;20657;-63
2023/03/19 10:02:32;;;;;;;;;;;;;;;12.78;71.73;98146.41;6126725;23;19947;-63
2023/03/19 10:05:07;;;;;;;;;;;;;;;12.73;71.73;98148.56;6153647;23;20325;-64
2023/03/19 10:07:46;;;;;;;;;;;;;;;12.71;73.15;98145.22;6153866;23;19908;-65
2023/03/19 10:10:30;;;;;;;;;;;;;;;12.69;72.99;98152.38;6153736;23;19950;-64
2023/03/19 10:13:04;;;;;;;;;;;;;;;12.63;73.37;98152.84;6153537;23;19915;-64
2023/03/19 10:15:29;;;;;;;;;;;;;;;12.56;73.54;98158.63;6126650;23;20329;-63
2023/03/19 10:17:56;;;;;;;;;;;;;;;12.50;73.22;98153.81;6153423;23;19914;-64
2023/03/19 10:20:40;;;;;;;;;;;;;;;12.47;73.66;98159.31;6128403;23;19983;-65
2023/03/19 10:23:22;;;;;;;;;;;;;;;12.49;74.00;98152.16;6153565;23;19912;-64
2023/03/19 10:25:47;;;;;;;;;;;;;;;12.54;74.60;98152.63;6154452;23;19910;-64
2023/03/19 10:28:13;;;;;;;;;;;;;;;12.57;75.42;98151.56;6104303;23;19916;-64
2023/03/19 10:30:38;;;;;;;;;;;;;;;12.62;75.16;98148.56;6154888;23;19916;-64
2023/03/19 10:33:23;;;;;;;;;;;;;;;12.72;75.29;98145.09;6153966;23;19908;-65
2023/03/19 10:35:50;;;;;;;;;;;;;;;12.89;74.99;98150.81;6128244;23;19908;-64
2023/03/19 10:38:18;;;;;;;;;;;;;;;13.02;74.69;98136.56;6128708;23;19912;-64
2023/03/19 10:40:44;;;;;;;;;;;;;;;13.18;74.49;98145.88;6128126;23;19913;-66
2023/03/19 10:43:14;;;;;;;;;;;;;;;13.31;73.73;98138.69;6103030;23;19943;-66
2023/03/19 10:45:39;;;;;;;;;;;;;;;13.50;73.34;98138.88;6128064;23;19909;-66
2023/03/19 10:48:05;;;;;;;;;;;;;;;13.66;72.62;98127.94;6154762;23;20101;-66
2023/03/19 10:50:31;;;;;;;;;;;;;;;13.86;72.44;98136.81;6128710;23;19908;-65
2023/03/19 10:53:07;;;;;;;;;;;;;;;14.05;71.97;98132.66;6154008;23;19909;-66
2023/03/19 10:55:32;;;;;;;;;;;;;;;14.27;72.01;98131.66;6127956;23;19913;-66
2023/03/19 10:58:05;;;;;;;;;;;;;;;14.46;71.40;98122.06;6154585;23;19916;-66
2023/03/19 11:00:34;;;;;;;;;;;;;;;14.68;70.66;98126.34;6154090;23;19913;-66
2023/03/19 11:03:03;;;;;;;;;;;;;;;14.90;69.89;98127.09;6127931;23;19913;-66
2023/03/19 11:05:28;;;;;;;;;;;;;;;15.15;69.52;98116.06;6128029;23;19920;-66
2023/03/19 11:07:58;;;;;;;;;;;;;;;15.36;69.11;98115.13;6126742;23;19908;-66
2023/03/19 11:10:24;;;;;;;;;;;;;;;15.57;68.28;98117.66;6128279;23;19912;-66
2023/03/19 11:12:56;;;;;;;;;;;;;;;15.72;67.54;98121.56;6102745;23;19913;-66
2023/03/19 11:15:42;;;;;;;;;;;;;;;15.96;67.18;98115.00;6127316;23;20336;-66
2023/03/19 11:18:14;;;;;;;;;;;;;;;16.25;66.37;98113.16;6153209;23;19919;-66
2023/03/19 11:20:40;;;;;;;;;;;;;;;16.54;65.50;98112.22;6127627;23;19916;-66
2023/03/19 11:23:08;;;;;;;;;;;;;;;16.83;65.35;98106.84;6126426;23;19915;-66
2023/03/19 11:25:33;;;;;;;;;;;;;;;17.06;63.42;98104.63;6152681;23;19909;-66
2023/03/19 11:28:08;;;;;;;;;;;;;;;17.20;62.57;98098.81;6152282;23;19909;-66
2023/03/19 11:30:40;;;;;;;;;;;;;;;17.29;61.69;98100.56;6127480;23;19948;-66
2023/03/19 11:33:14;;;;;;;;;;;;;;;17.33;61.07;98088.69;6153653;23;19909;-66
2023/03/19 11:35:39;;;;;;;;;;;;;;;17.37;60.01;98093.69;6127508;23;19915;-66
2023/03/19 11:38:05;;;;;;;;;;;;;;;17.48;59.23;98090.81;6153657;23;20248;-66
2023/03/19 11:40:36;;;;;;;;;;;;;;;17.65;58.79;98078.53;6127345;23;19912;-66
2023/03/19 11:43:04;;;;;;;;;;;;;;;17.76;57.85;98079.16;6153421;23;19916;-66
2023/03/19 11:45:34;;;;;;;;;;;;;;;18.09;57.31;98068.78;6153549;23;19909;-66
2023/03/19 11:48:00;;;;;;;;;;;;;;;18.39;56.39;98064.00;6127449;23;19936;-66
2023/03/19 11:50:25;;;;;;;;;;;;;;;18.87;55.90;98057.25;6153471;23;19919;-66
2023/03/19 11:53:10;;;;;;;;;;;;;;;19.24;52.93;98048.06;6154322;23;20305;-66
2023/03/19 11:55:53;;;;;;;;;;;;;;;19.28;51.31;98041.41;6152704;23;19908;-66
2023/03/19 11:58:39;;;;;;;;;;;;;;;19.66;52.08;98040.78;6153423;23;19916;-66
2023/03/19 12:01:06;;;;;;;;;;;;;;;20.32;51.75;98038.03;6151987;23;19927;-66
2023/03/19 12:03:32;;;;;;;;;;;;;;;20.82;51.49;98034.22;6102270;23;20339;-65
2023/03/19 12:06:06;;;;;;;;;;;;;;;21.27;48.49;98027.28;6153270;23;20379;-66
2023/03/19 12:08:37;;;;;;;;;;;;;;;21.17;48.48;98026.69;6152635;23;19908;-66
2023/03/19 12:11:07;;;;;;;;;;;;;;;21.50;46.79;98029.97;6127224;23;19909;-66
2023/03/19 12:13:36;;;;;;;;;;;;;;;22.09;45.18;98019.41;6102744;23;19936;-66
2023/03/19 12:16:04;;;;;;;;;;;;;;;22.36;44.01;98020.66;6153390;23;19912;-66
2023/03/19 12:18:48;;;;;;;;;;;;;;;22.18;44.07;98015.69;6153262;23;19909;-66
2023/03/19 12:21:16;;;;;;;;;;;;;;;22.66;43.23;98020.63;6153239;23;19913;-66
2023/03/19 12:23:41;;;;;;;;;;;;;;;22.87;42.82;98028.72;6126744;23;19909;-66
2023/03/19 12:26:07;;;;;;;;;;;;;;;23.42;41.35;98024.59;6126974;23;19916;-66
2023/03/19 12:28:51;;;;;;;;;;;;;;;23.97;39.61;98022.22;6154845;23;19909;-66
2023/03/19 12:31:33;;;;;;;;;;;;;;;24.22;39.15;98022.56;6155469;23;20043;-66
2023/03/19 12:34:13;;;;;;;;;;;;;;;24.61;38.47;98023.88;6128220;23;19932;-66
2023/03/19 12:36:41;;;;;;;;;;;;;;;24.43;35.87;98020.88;6155490;23;19909;-66
2023/03/19 12:39:10;;;;;;;;;;;;;;;25.06;35.64;98017.03;6105029;23;19928;-66
2023/03/19 12:41:35;;;;;;;;;;;;;;;25.79;36.02;98016.31;6104077;23;19963;-66
2023/03/19 12:44:05;;;;;;;;;;;;;;;26.34;34.42;98013.41;6103871;23;19912;-66